Time;durP1;ratioP1;P1;durP2;ratioP2;P2;SDS_P1;SDS_P2;PMS_P1;PMS_P2;Temp;Humidity;BMP_temperature;BMP_pressure;BME280_temperature;BME280_humidity;BME280_pressure;Samples;Min_cycle;Max_cycle;Signal;HPM_P1;HPM_P2
2023/01/16 00:01:22;;;;;;;7.53;5.00;;;3.50;99.90;;;;;;5101852;28;20158;-44
2023/01/16 00:03:48;;;;;;;10.35;5.22;;;3.50;99.90;;;;;;5102089;28;20047;-48
2023/01/16 00:06:14;;;;;;;7.88;5.18;;;3.40;99.90;;;;;;5101271;28;20155;-46
2023/01/16 00:08:42;;;;;;;11.32;6.13;;;3.50;99.90;;;;;;5082893;28;20050;-46
2023/01/16 00:11:08;;;;;;;11.75;5.15;;;3.30;99.90;;;;;;5100890;28;20563;-45
2023/01/16 00:13:34;;;;;;;9.02;5.47;;;3.30;99.90;;;;;;5101609;28;20501;-45
2023/01/16 00:15:59;;;;;;;8.60;5.35;;;3.30;99.90;;;;;;5101910;28;20075;-46
2023/01/16 00:18:25;;;;;;;8.20;5.57;;;3.10;99.90;;;;;;5100881;28;20067;-44
2023/01/16 00:20:51;;;;;;;9.90;5.63;;;3.10;99.90;;;;;;5100082;28;20103;-46
2023/01/16 00:23:17;;;;;;;8.43;5.60;;;3.20;99.90;;;;;;5102202;28;20051;-46
2023/01/16 00:25:43;;;;;;;10.98;5.90;;;3.20;99.90;;;;;;5099897;28;20047;-48
2023/01/16 00:28:10;;;;;;;9.85;6.00;;;3.20;99.90;;;;;;5100519;28;20395;-44
2023/01/16 00:30:36;;;;;;;11.23;6.30;;;3.20;99.90;;;;;;5081986;28;20089;-45
2023/01/16 00:33:03;;;;;;;11.15;5.90;;;3.40;99.90;;;;;;5101528;28;20403;-46
2023/01/16 00:35:29;;;;;;;12.68;5.47;;;3.30;99.90;;;;;;5101194;28;20043;-46
2023/01/16 00:37:54;;;;;;;12.18;5.35;;;3.30;99.90;;;;;;5101136;28;20528;-44
2023/01/16 00:40:20;;;;;;;10.73;5.30;;;3.20;99.90;;;;;;5101021;28;20398;-46
2023/01/16 00:42:46;;;;;;;10.60;5.07;;;3.30;99.90;;;;;;5101824;28;20040;-44
2023/01/16 00:45:12;;;;;;;10.50;5.68;;;3.30;99.90;;;;;;5101507;28;20054;-44
2023/01/16 00:47:38;;;;;;;9.57;4.72;;;3.40;99.90;;;;;;5100727;28;20241;-45
2023/01/16 00:50:04;;;;;;;10.65;5.63;;;3.30;99.90;;;;;;5100524;28;20051;-45
2023/01/16 00:52:29;;;;;;;9.38;4.80;;;3.40;99.90;;;;;;5098179;28;20051;-44
2023/01/16 00:54:55;;;;;;;11.95;5.80;;;3.40;99.90;;;;;;5083170;28;20048;-44
2023/01/16 00:57:21;;;;;;;9.85;5.43;;;3.30;99.90;;;;;;5100819;28;20058;-46
2023/01/16 00:59:46;;;;;;;10.30;5.10;;;3.40;99.90;;;;;;5100987;28;20190;-45
2023/01/16 01:02:13;;;;;;;8.52;5.60;;;3.20;99.90;;;;;;5101029;28;20075;-44
2023/01/16 01:04:39;;;;;;;12.52;5.75;;;3.30;99.90;;;;;;5100513;28;20043;-44
2023/01/16 01:07:05;;;;;;;8.50;5.32;;;3.30;99.90;;;;;;5100110;28;20043;-45
2023/01/16 01:09:31;;;;;;;8.40;5.18;;;3.30;99.90;;;;;;5100016;28;20039;-46
2023/01/16 01:11:57;;;;;;;8.63;5.18;;;3.40;99.90;;;;;;5101245;28;20051;-48
2023/01/16 01:14:23;;;;;;;10.55;4.72;;;3.30;99.90;;;;;;5100959;28;20444;-49
2023/01/16 01:16:49;;;;;;;8.65;4.60;;;3.40;99.90;;;;;;5100022;28;20043;-46
2023/01/16 01:19:15;;;;;;;11.93;4.53;;;3.60;99.90;;;;;;5100708;28;20455;-45
2023/01/16 01:21:40;;;;;;;9.65;5.03;;;3.40;99.90;;;;;;5081341;28;20048;-45
2023/01/16 01:24:06;;;;;;;13.68;6.68;;;3.40;99.90;;;;;;5099965;28;20054;-47
2023/01/16 01:26:32;;;;;;;9.50;4.40;;;3.60;99.90;;;;;;5100078;28;20085;-46
2023/01/16 01:28:58;;;;;;;9.60;4.63;;;3.50;99.90;;;;;;5095140;28;20144;-44
2023/01/16 01:31:23;;;;;;;9.80;4.70;;;3.40;99.90;;;;;;5091440;28;20130;-47
2023/01/16 01:33:49;;;;;;;13.63;4.45;;;3.40;99.90;;;;;;5100535;28;20052;-46
2023/01/16 01:36:15;;;;;;;9.95;4.30;;;3.40;99.90;;;;;;5099320;28;20050;-45
2023/01/16 01:38:40;;;;;;;9.38;4.45;;;3.30;99.90;;;;;;5100110;28;20050;-46
2023/01/16 01:41:06;;;;;;;6.55;4.10;;;3.30;99.90;;;;;;5081259;28;20395;-45
2023/01/16 01:43:49;;;;;;;7.90;3.92;;;3.30;99.90;;;;;;5100168;28;20058;-45
2023/01/16 01:46:29;;;;;;;8.43;4.07;;;3.00;99.90;;;;;;5080961;28;20047;-46
2023/01/16 01:49:04;;;;;;;13.63;4.72;;;3.00;99.90;;;;;;5100178;28;20477;-46
2023/01/16 01:51:36;;;;;;;7.90;4.15;;;3.00;99.90;;;;;;5098940;28;20108;-45
2023/01/16 01:54:09;;;;;;;8.48;4.43;;;3.00;99.90;;;;;;5099746;28;20078;-49
2023/01/16 01:56:46;;;;;;;13.53;4.33;;;2.90;99.90;;;;;;5097797;28;20043;-46
2023/01/16 01:59:17;;;;;;;11.48;4.45;;;2.80;99.90;;;;;;5099047;28;20056;-46
2023/01/16 02:01:43;;;;;;;10.68;4.25;;;2.90;99.90;;;;;;5099386;28;20130;-48
2023/01/16 02:04:13;;;;;;;12.60;4.25;;;2.80;99.90;;;;;;5100081;28;20142;-45
2023/01/16 02:06:47;;;;;;;13.85;4.90;;;2.70;99.90;;;;;;5073762;28;20040;-45
2023/01/16 02:09:15;;;;;;;11.05;4.28;;;2.70;99.90;;;;;;5100153;28;20500;-45
2023/01/16 02:11:49;;;;;;;9.15;4.68;;;2.70;99.90;;;;;;5098528;28;20055;-46
2023/01/16 02:14:17;;;;;;;10.05;4.47;;;2.50;99.90;;;;;;5099711;28;20059;-46
2023/01/16 02:19:50;;;;;;;11.82;4.20;;;2.40;99.90;;;;;;5098648;28;20055;-45
2023/01/16 02:22:31;;;;;;;13.27;4.93;;;2.50;99.90;;;;;;5099339;28;20091;-45
2023/01/16 02:25:33;;;;;;;10.95;4.10;;;2.60;99.90;;;;;;5099640;28;20071;-46
2023/01/16 02:28:36;;;;;;;13.85;4.85;;;2.60;99.90;;;;;;5098646;28;20051;-45
2023/01/16 02:31:31;;;;;;;13.10;5.00;;;2.70;99.90;;;;;;5098985;28;20111;-48
2023/01/16 02:34:25;;;;;;;10.13;5.07;;;2.90;99.90;;;;;;5080681;28;20087;-45
2023/01/16 02:37:00;;;;;;;8.52;4.75;;;3.00;99.90;;;;;;5098857;28;20052;-45
2023/01/16 02:39:46;;;;;;;9.15;4.78;;;3.10;99.90;;;;;;5098859;28;20400;-45
2023/01/16 02:42:48;;;;;;;13.80;5.63;;;3.10;99.90;;;;;;5081366;28;20510;-45
2023/01/16 02:45:55;;;;;;;13.60;4.75;;;3.10;99.90;;;;;;5081356;28;20063;-45
2023/01/16 02:48:46;;;;;;;10.95;4.47;;;3.30;99.90;;;;;;5097339;28;20382;-45
2023/01/16 02:51:14;;;;;;;8.80;4.50;;;3.30;99.90;;;;;;5097671;28;20533;-48
2023/01/16 02:54:10;;;;;;;11.73;4.82;;;3.40;99.90;;;;;;5099015;28;20126;-46
2023/01/16 02:56:42;;;;;;;10.50;5.03;;;3.20;99.90;;;;;;5079876;28;20039;-45
2023/01/16 02:59:10;;;;;;;11.32;5.05;;;3.20;99.90;;;;;;5099090;28;20160;-46
2023/01/16 03:01:40;;;;;;;12.30;5.38;;;3.30;99.90;;;;;;5075521;28;20054;-45
2023/01/16 03:04:40;;;;;;;9.43;5.70;;;3.40;99.90;;;;;;5091685;28;20052;-46
2023/01/16 03:07:21;;;;;;;12.88;5.93;;;3.50;99.90;;;;;;5096620;28;20404;-45
2023/01/16 03:10:35;;;;;;;9.48;5.47;;;3.40;99.90;;;;;;5098135;28;20136;-49
2023/01/16 03:13:26;;;;;;;15.00;6.30;;;3.60;99.90;;;;;;5080891;28;20051;-47
2023/01/16 03:16:15;;;;;;;9.98;6.22;;;3.50;99.90;;;;;;5098245;28;20051;-47
2023/01/16 03:18:49;;;;;;;11.50;6.03;;;3.60;99.90;;;;;;5097273;28;20054;-44
2023/01/16 03:21:53;;;;;;;9.88;6.40;;;3.50;99.90;;;;;;5098826;28;20056;-47
2023/01/16 03:24:34;;;;;;;15.10;7.05;;;3.50;99.90;;;;;;5098685;28;20051;-45
2023/01/16 03:27:28;;;;;;;12.85;7.25;;;3.50;99.90;;;;;;5097758;28;20104;-45
2023/01/16 03:30:17;;;;;;;12.40;7.63;;;3.60;99.90;;;;;;5098195;28;20331;-47
2023/01/16 03:33:05;;;;;;;14.23;8.88;;;3.60;99.90;;;;;;5098367;28;20051;-46
2023/01/16 03:35:40;;;;;;;13.00;8.32;;;3.70;99.90;;;;;;5097943;28;20047;-45
2023/01/16 03:38:10;;;;;;;16.42;10.25;;;3.70;99.90;;;;;;5097716;28;20051;-49
2023/01/16 03:40:41;;;;;;;15.27;9.88;;;3.80;99.90;;;;;;5080067;28;20055;-45
2023/01/16 03:43:13;;;;;;;14.55;9.77;;;3.70;99.90;;;;;;5080242;28;20059;-45
2023/01/16 03:45:44;;;;;;;14.00;9.95;;;3.80;99.90;;;;;;5097929;28;20046;-46
2023/01/16 03:48:26;;;;;;;16.92;9.23;;;3.90;99.90;;;;;;5097943;28;20131;-46
2023/01/16 03:50:56;;;;;;;14.32;10.48;;;3.80;99.90;;;;;;5097455;28;20039;-47
2023/01/16 03:53:29;;;;;;;17.33;10.70;;;3.80;99.90;;;;;;5098213;28;20056;-45
2023/01/16 03:56:12;;;;;;;15.63;11.50;;;3.90;99.90;;;;;;5097885;28;20124;-46
2023/01/16 03:58:41;;;;;;;17.25;10.63;;;3.90;99.90;;;;;;5098091;28;20257;-46
2023/01/16 04:01:25;;;;;;;20.20;10.88;;;4.00;99.90;;;;;;5100724;28;20440;-45
2023/01/16 04:03:59;;;;;;;18.20;12.20;;;4.00;99.90;;;;;;5089375;28;20532;-45
2023/01/16 04:06:48;;;;;;;17.40;11.70;;;3.90;99.90;;;;;;5101692;28;20158;-45
2023/01/16 04:09:21;;;;;;;18.73;11.60;;;4.00;99.90;;;;;;5101739;28;20051;-45
2023/01/16 04:11:50;;;;;;;23.20;12.32;;;4.00;99.90;;;;;;5102012;28;20397;-47
2023/01/16 04:14:18;;;;;;;16.35;11.63;;;4.00;99.90;;;;;;5081837;28;20557;-48
2023/01/16 04:16:43;;;;;;;21.20;13.35;;;3.90;99.90;;;;;;5101192;28;20051;-46
2023/01/16 04:19:12;;;;;;;20.67;12.65;;;3.90;99.90;;;;;;5100766;28;20312;-45
2023/01/16 04:21:44;;;;;;;18.40;12.90;;;3.90;99.90;;;;;;5101587;28;20126;-45
2023/01/16 04:24:10;;;;;;;19.33;13.82;;;4.00;99.90;;;;;;5096303;28;20054;-45
2023/01/16 04:26:36;;;;;;;20.17;14.57;;;4.00;99.90;;;;;;5093017;28;20040;-46
2023/01/16 04:29:01;;;;;;;23.55;15.77;;;4.00;99.90;;;;;;5099571;28;20067;-48
2023/01/16 04:31:28;;;;;;;24.67;15.65;;;3.90;99.90;;;;;;5101325;28;20149;-46
2023/01/16 04:33:54;;;;;;;23.75;15.10;;;4.10;99.90;;;;;;5101604;28;20071;-45
2023/01/16 04:36:20;;;;;;;23.42;16.20;;;4.10;99.90;;;;;;5083070;28;20051;-47
2023/01/16 04:38:46;;;;;;;22.13;15.45;;;4.00;99.90;;;;;;5101988;28;20051;-48
2023/01/16 04:41:12;;;;;;;24.85;16.80;;;4.00;99.90;;;;;;5100411;28;20390;-47
2023/01/16 04:43:38;;;;;;;25.45;16.67;;;4.00;99.90;;;;;;5101013;28;20063;-46
2023/01/16 04:46:03;;;;;;;26.55;17.20;;;3.90;99.90;;;;;;5101260;28;20510;-46
2023/01/16 04:48:30;;;;;;;24.30;16.38;;;3.90;99.90;;;;;;5101648;28;20502;-45
2023/01/16 04:50:56;;;;;;;22.42;17.30;;;3.90;99.90;;;;;;5100814;28;20050;-45
2023/01/16 04:53:21;;;;;;;25.35;16.45;;;3.80;99.90;;;;;;5101621;28;20047;-47
2023/01/16 04:55:47;;;;;;;24.05;17.83;;;3.80;99.90;;;;;;5100713;28;20066;-48
2023/01/16 04:58:13;;;;;;;24.80;16.45;;;3.70;99.90;;;;;;5101343;28;20085;-47
2023/01/16 05:00:38;;;;;;;25.05;16.38;;;3.80;99.90;;;;;;5098208;28;20443;-45
2023/01/16 05:03:04;;;;;;;28.38;18.45;;;3.60;99.90;;;;;;5090774;28;20046;-47
2023/01/16 05:05:30;;;;;;;30.33;18.05;;;3.60;99.90;;;;;;5100305;28;20044;-47
2023/01/16 05:10:39;;;;;;;29.13;17.35;;;3.40;99.90;;;;;;5098755;28;20532;-47
2023/01/16 05:13:05;;;;;;;24.65;17.88;;;3.40;99.90;;;;;;5100416;28;20047;-46
2023/01/16 05:15:31;;;;;;;31.08;17.92;;;3.20;99.90;;;;;;5100583;28;20049;-46
2023/01/16 05:17:57;;;;;;;27.67;17.67;;;3.30;99.90;;;;;;5099992;28;20047;-45
2023/01/16 05:20:23;;;;;;;26.02;17.55;;;3.20;99.90;;;;;;5099896;28;20055;-46
2023/01/16 05:22:48;;;;;;;32.88;18.80;;;3.20;99.90;;;;;;5081853;28;20062;-46
2023/01/16 05:25:14;;;;;;;32.92;18.75;;;3.00;99.90;;;;;;5100353;28;20048;-45
2023/01/16 05:27:39;;;;;;;26.08;17.75;;;3.00;99.90;;;;;;5081757;28;20063;-46
2023/01/16 05:30:06;;;;;;;29.60;17.90;;;3.10;99.90;;;;;;5099647;28;20040;-45
2023/01/16 05:32:32;;;;;;;32.33;19.33;;;2.90;99.90;;;;;;5100518;28;20680;-46
2023/01/16 05:35:00;;;;;;;28.23;18.17;;;2.90;99.90;;;;;;5100482;28;20136;-47
2023/01/16 05:37:26;;;;;;;31.48;19.08;;;2.80;99.90;;;;;;5081566;28;20048;-44
2023/01/16 05:39:51;;;;;;;30.63;19.95;;;3.00;99.90;;;;;;5099411;28;20054;-43
2023/01/16 05:42:24;;;;;;;30.52;19.73;;;3.00;99.90;;;;;;5100630;28;20497;-47
2023/01/16 05:44:51;;;;;;;33.15;20.08;;;3.10;99.90;;;;;;5100311;28;20043;-46
2023/01/16 05:47:20;;;;;;;37.03;19.92;;;3.30;99.90;;;;;;5099749;28;20074;-48
2023/01/16 05:49:46;;;;;;;29.05;19.08;;;3.30;99.90;;;;;;5099212;28;20100;-45
2023/01/16 05:52:12;;;;;;;25.88;17.67;;;3.40;99.90;;;;;;5099572;28;20051;-45
2023/01/16 05:54:38;;;;;;;26.02;17.83;;;3.50;99.90;;;;;;5099455;28;20460;-46
2023/01/16 05:57:03;;;;;;;27.23;16.95;;;3.40;99.90;;;;;;5099703;28;20043;-46
2023/01/16 05:59:29;;;;;;;24.25;16.25;;;3.50;99.90;;;;;;5099424;28;20104;-49
2023/01/16 06:01:56;;;;;;;26.55;16.27;;;3.50;99.90;;;;;;5099656;28;20575;-46
2023/01/16 06:04:22;;;;;;;21.98;15.13;;;3.50;99.90;;;;;;5080822;28;20105;-45
2023/01/16 06:06:48;;;;;;;22.02;15.23;;;3.40;99.90;;;;;;5098874;28;20127;-48
2023/01/16 06:09:14;;;;;;;24.45;15.20;;;3.30;99.90;;;;;;5080238;28;20047;-48
2023/01/16 06:11:40;;;;;;;27.00;14.80;;;3.40;99.90;;;;;;5080341;28;20060;-45
2023/01/16 06:14:06;;;;;;;24.85;14.85;;;3.30;99.90;;;;;;5098992;28;20375;-46
2023/01/16 06:16:32;;;;;;;25.50;15.73;;;3.20;99.90;;;;;;5098104;28;20574;-45
2023/01/16 06:18:58;;;;;;;32.00;16.77;;;3.10;99.90;;;;;;5098035;28;20048;-45
2023/01/16 06:21:24;;;;;;;25.05;16.65;;;3.10;99.90;;;;;;5099060;28;20283;-46
2023/01/16 06:23:50;;;;;;;25.65;15.48;;;3.10;99.90;;;;;;5099050;28;20150;-46
2023/01/16 06:26:15;;;;;;;22.38;14.63;;;2.90;99.90;;;;;;5099176;28;20043;-45
2023/01/16 06:28:41;;;;;;;24.92;14.75;;;2.90;99.90;;;;;;5099040;28;20670;-45
2023/01/16 06:31:07;;;;;;;27.77;14.25;;;2.90;99.90;;;;;;5098436;28;20515;-47
2023/01/16 06:33:33;;;;;;;22.23;14.75;;;3.00;99.90;;;;;;5098267;28;20047;-46
2023/01/16 06:35:59;;;;;;;19.77;13.65;;;3.00;99.90;;;;;;5080328;28;20122;-46
2023/01/16 06:38:25;;;;;;;22.48;14.05;;;3.10;99.90;;;;;;5098586;28;20126;-46
2023/01/16 06:40:55;;;;;;;21.27;13.50;;;3.00;99.90;;;;;;5080465;28;20051;-45
2023/01/16 06:43:23;;;;;;;20.38;13.15;;;3.00;99.90;;;;;;5098721;28;20728;-46
2023/01/16 06:45:48;;;;;;;23.98;12.25;;;3.00;99.90;;;;;;5098164;28;20414;-46
2023/01/16 06:48:14;;;;;;;21.38;12.32;;;3.00;99.90;;;;;;5098849;28;20051;-47
2023/01/16 06:50:40;;;;;;;21.27;11.75;;;2.90;99.90;;;;;;5097346;28;20066;-46
2023/01/16 06:53:05;;;;;;;18.92;11.38;;;3.00;99.90;;;;;;5098037;28;20071;-46
2023/01/16 06:55:31;;;;;;;18.80;10.95;;;3.10;99.90;;;;;;5098811;28;20379;-48
2023/01/16 06:57:57;;;;;;;16.42;9.50;;;3.00;99.90;;;;;;5062998;28;20051;-45
2023/01/16 07:00:23;;;;;;;20.20;11.00;;;3.10;99.90;;;;;;5098137;28;20453;-47
2023/01/16 07:02:55;;;;;;;20.85;10.48;;;3.20;99.90;;;;;;5075889;28;20048;-45
2023/01/16 07:05:25;;;;;;;18.63;9.20;;;3.30;99.90;;;;;;5089911;28;20070;-50
2023/01/16 07:07:51;;;;;;;17.92;8.73;;;3.10;99.90;;;;;;5097867;28;20051;-45
2023/01/16 07:10:20;;;;;;;15.32;9.30;;;3.10;99.90;;;;;;5098689;28;20499;-49
2023/01/16 07:12:46;;;;;;;17.60;7.78;;;3.10;99.90;;;;;;5099017;28;20456;-45
2023/01/16 07:23:31;;;;;;;16.10;7.82;;;3.10;99.90;;;;;;5098599;28;20091;-46
2023/01/16 07:25:59;;;;;;;10.20;6.72;;;3.00;99.90;;;;;;5079417;28;20492;-45
2023/01/16 07:28:25;;;;;;;11.43;6.55;;;3.00;99.90;;;;;;5098471;28;20051;-47
2023/01/16 07:30:52;;;;;;;13.75;5.78;;;3.20;99.90;;;;;;5080128;28;20058;-46
2023/01/16 07:33:18;;;;;;;15.93;6.53;;;3.10;99.90;;;;;;5098651;28;20128;-48
2023/01/16 07:35:45;;;;;;;13.45;6.75;;;3.00;99.90;;;;;;5101053;28;20043;-48
2023/01/16 07:38:11;;;;;;;11.00;5.40;;;3.10;99.90;;;;;;5102440;28;20115;-47
2023/01/16 07:40:36;;;;;;;10.27;5.47;;;3.10;99.90;;;;;;5101706;28;20043;-47
2023/01/16 07:43:02;;;;;;;16.25;6.15;;;3.20;99.90;;;;;;5101490;28;20112;-45
2023/01/16 07:45:28;;;;;;;12.23;5.85;;;3.10;99.90;;;;;;5083703;28;20044;-45
2023/01/16 07:47:53;;;;;;;13.23;5.45;;;3.20;99.90;;;;;;5102209;28;20039;-46
2023/01/16 07:50:19;;;;;;;8.40;5.25;;;3.20;99.90;;;;;;5082728;28;20082;-46
2023/01/16 07:52:45;;;;;;;11.93;6.20;;;3.10;99.90;;;;;;5101456;28;20062;-45
2023/01/16 07:55:12;;;;;;;9.50;5.03;;;3.10;99.90;;;;;;5101952;28;20108;-44
2023/01/16 07:57:38;;;;;;;11.85;5.90;;;3.10;99.90;;;;;;5100763;28;20468;-45
2023/01/16 08:00:07;;;;;;;10.27;5.03;;;3.10;99.90;;;;;;5082888;28;20505;-46
2023/01/16 08:02:33;;;;;;;12.43;4.88;;;3.20;99.90;;;;;;5082415;28;20063;-46
2023/01/16 08:04:58;;;;;;;11.90;5.65;;;3.30;99.90;;;;;;5082640;28;20055;-46
2023/01/16 08:07:24;;;;;;;11.55;4.57;;;3.30;99.90;;;;;;5100773;28;20044;-46
2023/01/16 08:09:49;;;;;;;14.70;4.68;;;3.30;99.90;;;;;;5101109;28;20059;-45
2023/01/16 08:12:15;;;;;;;10.23;5.20;;;3.30;99.90;;;;;;5101272;28;20680;-47
2023/01/16 08:14:41;;;;;;;10.27;5.35;;;3.20;99.90;;;;;;5101679;28;20485;-47
2023/01/16 08:17:07;;;;;;;14.05;5.72;;;3.30;99.90;;;;;;5100730;28;20517;-46
2023/01/16 08:19:33;;;;;;;12.35;4.60;;;3.30;99.90;;;;;;5100834;28;20482;-45
2023/01/16 08:21:58;;;;;;;10.38;5.40;;;3.30;99.90;;;;;;5101431;28;20305;-47
2023/01/16 08:24:25;;;;;;;12.02;5.30;;;3.30;99.90;;;;;;5101483;28;20047;-50
2023/01/16 08:26:52;;;;;;;9.75;5.07;;;3.30;99.90;;;;;;5082383;28;20055;-48
2023/01/16 08:29:18;;;;;;;9.82;4.43;;;3.40;99.90;;;;;;5099430;28;20066;-48
2023/01/16 08:31:43;;;;;;;11.75;4.82;;;3.40;99.90;;;;;;5099099;28;20082;-46
2023/01/16 08:34:09;;;;;;;13.35;5.85;;;3.50;99.90;;;;;;5079891;28;20104;-46
2023/01/16 08:36:35;;;;;;;14.50;6.32;;;3.50;99.90;;;;;;5097886;28;20155;-48
2023/01/16 08:39:01;;;;;;;10.45;5.32;;;3.50;99.90;;;;;;5098697;28;20043;-49
2023/01/16 08:52:36;;;;;;;10.35;5.53;;;3.70;99.90;;;;;;5070636;28;20576;-46
2023/01/16 08:55:02;;;;;;;11.50;6.05;;;3.70;99.90;;;;;;5084371;28;20489;-48
2023/01/16 08:57:28;;;;;;;9.18;5.65;;;3.70;99.90;;;;;;5095379;28;20113;-46
2023/01/16 08:59:55;;;;;;;12.40;5.93;;;3.70;99.90;;;;;;5083793;28;20109;-45
2023/01/16 09:02:21;;;;;;;14.80;6.57;;;3.80;99.90;;;;;;5082193;28;20454;-51
2023/01/16 09:04:47;;;;;;;14.73;6.03;;;3.70;99.90;;;;;;5090387;28;20113;-48
2023/01/16 09:07:14;;;;;;;12.13;6.82;;;3.80;99.90;;;;;;5071297;28;20036;-49
2023/01/16 09:09:43;;;;;;;16.88;6.68;;;3.80;99.90;;;;;;5083583;28;20047;-47
2023/01/16 09:14:57;;;;;;;13.75;6.28;;;3.90;99.90;;;;;;5093603;28;20059;-49
2023/01/16 09:17:25;;;;;;;9.27;5.47;;;3.90;99.90;;;;;;5089056;28;20050;-52
2023/01/16 09:19:52;;;;;;;13.68;6.43;;;3.80;99.90;;;;;;5067542;28;20406;-48
2023/01/16 09:22:18;;;;;;;9.60;5.38;;;3.90;99.90;;;;;;5060792;28;20449;-49
2023/01/16 09:24:44;;;;;;;12.32;5.55;;;3.80;99.90;;;;;;5086964;28;20040;-48
2023/01/16 09:27:10;;;;;;;8.90;5.43;;;3.80;99.90;;;;;;5091401;28;20143;-47
2023/01/16 09:29:35;;;;;;;8.93;5.57;;;3.90;99.90;;;;;;5095664;28;20044;-48
2023/01/16 09:32:07;;;;;;;13.90;5.95;;;3.90;99.90;;;;;;5096676;28;20112;-45
2023/01/16 09:34:33;;;;;;;10.93;5.15;;;3.90;99.90;;;;;;5093497;28;20047;-47
2023/01/16 09:36:59;;;;;;;8.65;4.95;;;3.80;99.90;;;;;;5094217;28;20548;-44
2023/01/16 09:39:25;;;;;;;10.93;5.80;;;3.80;99.90;;;;;;5084446;28;20280;-50
2023/01/16 09:45:10;;;;;;;13.70;5.80;;;3.80;99.90;;;;;;5051284;28;20041;-45
2023/01/16 09:47:36;;;;;;;8.93;5.63;;;4.00;99.90;;;;;;5044235;28;20106;-47
2023/01/16 09:50:25;;;;;;;11.55;5.93;;;3.90;99.90;;;;;;5047910;28;20139;-49
2023/01/16 09:58:36;;;;;;;9.93;5.90;;;3.90;99.90;;;;;;5048143;28;20052;-46
2023/01/16 10:01:08;;;;;;;11.05;6.18;;;3.90;99.90;;;;;;5010165;28;20051;-45
2023/01/16 10:03:34;;;;;;;12.10;5.80;;;3.90;99.90;;;;;;5043392;28;20083;-46
2023/01/16 10:06:29;;;;;;;11.02;4.97;;;4.00;99.90;;;;;;5044552;28;20041;-45
2023/01/16 10:08:57;;;;;;;13.45;4.80;;;3.90;99.90;;;;;;5048970;28;20064;-47
2023/01/16 10:11:32;;;;;;;7.57;4.40;;;4.00;99.90;;;;;;5046037;28;20044;-47
2023/01/16 10:14:20;;;;;;;8.98;4.90;;;3.90;99.90;;;;;;5039614;28;20037;-47
2023/01/16 10:17:12;;;;;;;10.30;4.35;;;3.90;99.90;;;;;;5047366;28;20044;-45
2023/01/16 10:19:40;;;;;;;6.90;4.22;;;3.90;99.90;;;;;;5033725;28;20487;-45
2023/01/16 10:22:47;;;;;;;8.18;4.85;;;4.00;99.90;;;;;;5060865;28;20079;-46
2023/01/16 10:25:23;;;;;;;8.55;4.15;;;3.90;99.90;;;;;;5093727;28;20066;-46
2023/01/16 10:28:07;;;;;;;9.00;4.38;;;4.00;99.90;;;;;;5085999;28;20117;-46
2023/01/16 10:30:47;;;;;;;8.23;3.90;;;3.90;99.90;;;;;;5088384;28;20089;-47
2023/01/16 10:33:46;;;;;;;9.68;3.92;;;3.90;99.90;;;;;;5068656;28;20186;-46
2023/01/16 10:36:15;;;;;;;6.68;3.58;;;3.90;99.90;;;;;;5094162;28;20359;-46
2023/01/16 10:38:50;;;;;;;6.05;2.90;;;3.70;99.90;;;;;;5090066;28;20055;-46
2023/01/16 10:50:13;;;;;;;4.60;1.98;;;3.60;99.90;;;;;;5081271;28;20048;-46
2023/01/16 10:52:39;;;;;;;4.25;2.20;;;3.50;99.90;;;;;;5093904;28;20481;-47
2023/01/16 10:55:06;;;;;;;5.97;2.42;;;3.50;99.90;;;;;;5071563;28;21520;-48
2023/01/16 10:57:32;;;;;;;3.03;2.13;;;3.50;99.90;;;;;;5094584;28;20494;-48
2023/01/16 11:00:11;;;;;;;3.65;2.47;;;3.50;99.90;;;;;;5083131;28;20032;-47
2023/01/16 11:02:42;;;;;;;6.18;2.30;;;3.40;99.90;;;;;;5093976;28;20036;-46
2023/01/16 11:05:28;;;;;;;3.85;2.17;;;3.50;99.90;;;;;;5084020;28;20420;-47
2023/01/16 11:08:01;;;;;;;3.10;2.00;;;3.60;99.90;;;;;;5083355;28;20039;-46
2023/01/16 11:10:26;;;;;;;4.28;2.40;;;3.50;99.90;;;;;;5092522;28;20043;-47
2023/01/16 11:18:30;;;;;;;3.65;2.00;;;3.30;99.90;;;;;;5085760;28;20642;-46
2023/01/16 11:20:58;;;;;;;3.90;3.50;;;3.30;99.90;;;;;;5082438;28;20039;-46
2023/01/16 11:23:35;;;;;;;4.35;2.30;;;3.40;99.90;;;;;;5064853;28;21165;-48
2023/01/16 11:26:01;;;;;;;2.42;2.03;;;3.40;99.90;;;;;;5074027;28;20036;-48
2023/01/16 11:28:29;;;;;;;3.47;2.95;;;3.40;99.90;;;;;;5093440;28;20073;-47
2023/01/16 11:30:59;;;;;;;5.03;2.85;;;3.40;99.90;;;;;;5094118;28;20111;-46
2023/01/16 11:33:37;;;;;;;2.50;2.00;;;3.40;99.90;;;;;;5081737;28;20042;-47
2023/01/16 11:36:04;;;;;;;4.10;2.15;;;3.50;99.90;;;;;;5093516;28;20130;-46
2023/01/16 11:38:35;;;;;;;2.72;2.33;;;3.50;99.90;;;;;;5093192;28;20048;-46
2023/01/16 11:41:08;;;;;;;4.70;3.08;;;3.40;99.90;;;;;;5085026;28;20044;-47
2023/01/16 11:46:40;;;;;;;3.00;2.70;;;3.40;99.90;;;;;;5057887;28;20047;-48
2023/01/16 11:49:18;;;;;;;3.10;2.80;;;3.40;99.90;;;;;;5091844;28;20385;-46
2023/01/16 11:51:48;;;;;;;3.83;3.13;;;3.50;99.90;;;;;;5093807;28;20039;-47
2023/01/16 11:54:15;;;;;;;5.30;4.00;;;3.40;99.90;;;;;;5093587;28;20265;-47
2023/01/16 11:57:03;;;;;;;4.50;3.20;;;3.50;99.90;;;;;;5079528;28;20036;-47
2023/01/16 12:00:20;;;;;;;5.68;3.40;;;3.50;99.90;;;;;;5091022;28;20112;-47
2023/01/16 12:03:03;;;;;;;4.15;3.00;;;3.50;99.90;;;;;;5006075;28;20431;-47
2023/01/16 12:05:59;;;;;;;4.38;3.30;;;3.40;99.90;;;;;;5009482;28;20041;-47
2023/01/16 12:08:36;;;;;;;5.40;3.80;;;3.40;99.90;;;;;;5001372;28;20153;-47
2023/01/16 12:11:20;;;;;;;7.03;5.20;;;3.60;99.90;;;;;;5005446;28;20129;-49
2023/01/16 12:16:48;;;;;;;5.60;3.50;;;3.50;99.90;;;;;;5004922;28;20267;-47
2023/01/16 12:19:47;;;;;;;4.30;3.63;;;3.60;99.90;;;;;;4992711;28;20065;-47
2023/01/16 12:22:31;;;;;;;4.25;3.85;;;3.60;99.90;;;;;;4961123;28;20054;-47
2023/01/16 12:24:56;;;;;;;;;;;3.70;99.90;;;;;;4974614;28;20066;-47
2023/01/16 12:27:28;;;;;;;5.25;4.00;;;3.80;99.90;;;;;;4968737;28;19922;-47
2023/01/16 12:30:13;;;;;;;5.32;4.25;;;3.70;99.90;;;;;;4956111;28;20045;-47
2023/01/16 12:32:50;;;;;;;4.75;3.63;;;3.80;99.90;;;;;;4957847;28;20053;-47
2023/01/16 12:35:42;;;;;;;10.32;4.60;;;3.80;99.90;;;;;;4940748;28;20051;-47
2023/01/16 12:38:10;;;;;;;5.65;4.18;;;3.70;99.90;;;;;;4981345;28;20054;-47
2023/01/16 12:40:44;;;;;;;4.53;4.05;;;3.80;99.90;;;;;;5055778;28;20151;-48
2023/01/16 12:43:41;;;;;;;6.13;5.03;;;3.80;99.90;;;;;;5040812;28;20059;-48
2023/01/16 12:46:19;;;;;;;5.85;4.50;;;3.80;99.90;;;;;;5057055;28;20053;-46
2023/01/16 12:49:20;;;;;;;5.75;3.72;;;4.00;99.90;;;;;;5056320;28;20043;-46
2023/01/16 12:52:17;;;;;;;7.43;4.70;;;4.00;99.90;;;;;;4991313;28;21241;-47
2023/01/16 12:54:53;;;;;;;7.55;4.93;;;4.00;99.90;;;;;;4967662;28;20189;-47
2023/01/16 12:57:37;;;;;;;7.85;5.57;;;3.90;99.90;;;;;;4954009;28;20559;-47
2023/01/16 13:00:45;;;;;;;6.25;5.55;;;3.90;99.90;;;;;;4973421;28;20792;-47
2023/01/16 13:03:38;;;;;;;8.13;5.13;;;4.00;99.90;;;;;;4914269;29;20195;-47
2023/01/16 13:06:10;;;;;;;7.82;5.72;;;4.00;99.90;;;;;;4914627;29;20054;-47
2023/01/16 13:08:44;;;;;;;12.18;6.50;;;4.00;99.90;;;;;;4899096;29;20051;-47
2023/01/16 13:14:06;;;;;;;;;;;4.00;99.90;;;;;;4915071;29;20083;-47
2023/01/16 13:16:35;;;;;;;10.32;7.90;;;4.20;99.90;;;;;;4914158;29;20709;-48
2023/01/16 13:19:15;;;;;;;8.52;6.07;;;4.20;99.90;;;;;;4912817;29;20518;-48
2023/01/16 13:22:16;;;;;;;7.63;6.85;;;4.10;99.90;;;;;;4915496;29;20078;-47
2023/01/16 13:24:41;;;;;;;7.68;5.75;;;4.30;99.90;;;;;;4915584;29;20111;-48
2023/01/16 13:27:17;;;;;;;8.95;5.65;;;4.10;99.90;;;;;;4933872;29;20043;-46
2023/01/16 13:29:58;;;;;;;8.65;6.30;;;4.30;99.90;;;;;;4933702;29;20055;-46
2023/01/16 13:32:30;;;;;;;8.85;6.00;;;4.20;99.90;;;;;;4993448;28;20052;-47
2023/01/16 13:35:21;;;;;;;10.88;6.38;;;4.20;99.90;;;;;;4993982;28;20038;-47
2023/01/16 13:38:02;;;;;;;8.60;6.82;;;4.20;99.90;;;;;;5066132;28;20059;-46
2023/01/16 13:40:34;;;;;;;8.52;7.00;;;4.30;99.90;;;;;;5089718;28;20418;-46
2023/01/16 13:46:08;;;;;;;9.15;7.22;;;4.20;99.90;;;;;;5095187;28;20572;-46
2023/01/16 13:48:36;;;;;;;8.55;7.50;;;4.30;99.90;;;;;;5087917;28;20517;-45
2023/01/16 13:51:16;;;;;;;9.07;6.90;;;4.20;99.90;;;;;;5077824;28;20418;-46
2023/01/16 13:53:47;;;;;;;7.82;6.30;;;4.30;99.90;;;;;;5095288;28;20051;-48
2023/01/16 13:56:20;;;;;;;7.40;6.43;;;4.20;99.90;;;;;;5066162;28;20051;-46
2023/01/16 13:58:52;;;;;;;9.52;7.10;;;4.20;99.90;;;;;;5087638;28;20342;-47
2023/01/16 14:01:39;;;;;;;10.35;7.22;;;4.30;99.90;;;;;;5063054;28;20102;-46
2023/01/16 14:04:14;;;;;;;8.90;6.85;;;4.40;99.90;;;;;;5080621;28;20044;-46
2023/01/16 14:10:06;;;;;;;9.32;6.78;;;4.30;99.90;;;;;;5081301;28;20120;-46
2023/01/16 14:12:40;;;;;;;12.63;7.45;;;4.40;99.90;;;;;;5081991;28;20058;-48
2023/01/16 14:18:12;;;;;;;10.05;6.50;;;4.40;99.90;;;;;;5091645;28;19930;-50
2023/01/16 14:20:48;;;;;;;7.82;6.43;;;4.30;99.90;;;;;;5090463;28;20039;-46
2023/01/16 14:26:20;;;;;;;8.88;6.90;;;4.30;99.90;;;;;;5093583;28;20120;-47